Pagrindinis puslapis
METAR-TAF:

METAR-TAF

Oro uostai :

Ljungbyhed, Švedija

platuma: 56-04N, ilguma: 013-12E, Aukštis: 43 m

Dabartinis oras

Ataskaita buvo paskelbta 20 minutes, ne 07:50 UTC
Vėjas 13 kt iš Vakarų/Šiaurės Vakarų
Temperatūra 14°C
Drėgmė 88%
Slėgis 1016 hPa
Matomumas 10 km arba daugiau
Išsisklaidę debesys ne aukštis 1300 ft
Su prošvaistėmis ne aukštis 1700 ft

METAR: ESTL 200750Z 30013KT 9999 SCT013 BKN017 14/12 Q1016

Laikas: 10:10 (08:10 UTC)

Prognozė

Ataskaita buvo paskelbta 3 valandos ir 2 minutes, ne 05:08 UTC
Prognozė galioja nuo 20 metu 06 UTC su 20 metu 15 UTC
Vėjas 10 kt iš Vakarų/Šiaurės Vakarų
Matomumas: 6000 m
Išsisklaidę debesys ne aukštis 3000 ft

TAF: ESTL 200508Z 2006/2015 30010KT 6000 SCT030

Orai ataskaitas ir orų prognozės (METAR, TAF).

turimą stotys yra geltonos ir raudonos taškus žemėlapyje.

Perkelti pele per norėdami pamatyti stoties vardą.

Tada spustelėkite, norėdami matyti oro stebėjimo ir prognozės.

Norėdami pakeisti žemėlapį: spustelėkite ant žalios mygtukų su juodo kryžiaus žemyn,; žalią mygtuką su brūkšneliu, jei norite nutolinti; arba žalių rodyklių gretimoms žemėlapius.


METAR-TAF: